createdAt,value
2023-02-28T00:08:35.684Z,77835.59
2023-02-28T00:18:40.762Z,77819.38
2023-02-28T00:28:47.865Z,77821.41
2023-02-28T00:38:58.110Z,77827.50
2023-02-28T00:49:04.621Z,77833.56
2023-02-28T00:59:09.798Z,77825.47
2023-02-28T01:09:14.722Z,77821.41
2023-02-28T01:19:18.145Z,77819.38
2023-02-28T01:29:23.364Z,77819.38
2023-02-28T01:39:28.309Z,77825.47
2023-02-28T01:49:32.775Z,77821.41
2023-02-28T01:59:50.776Z,77831.53
2023-02-28T02:10:17.293Z,77827.50
2023-02-28T02:20:32.002Z,77835.59
2023-02-28T02:30:48.893Z,77839.63
2023-02-28T02:41:00.023Z,77839.63
2023-02-28T02:51:05.478Z,77851.78
2023-02-28T03:01:08.781Z,77878.13
2023-02-28T03:11:16.084Z,77876.09
2023-02-28T03:21:29.006Z,77884.19
2023-02-28T03:31:40.386Z,77888.25
2023-02-28T03:41:53.300Z,77902.41
2023-02-28T03:52:03.106Z,77916.59
2023-02-28T04:02:08.435Z,77910.50
2023-02-28T04:12:10.683Z,77928.72
2023-02-28T04:22:13.272Z,77920.63
2023-02-28T04:32:20.205Z,77924.69
2023-02-28T04:42:24.872Z,77910.50
2023-02-28T04:52:28.576Z,77904.44
2023-02-28T05:02:31.546Z,77912.53
2023-02-28T05:12:33.802Z,77916.59
2023-02-28T05:22:38.930Z,77924.69
2023-02-28T05:32:46.110Z,77930.75
2023-02-28T05:42:52.748Z,77934.81
2023-02-28T05:52:57.079Z,77932.78
2023-02-28T06:03:03.311Z,77880.13
2023-02-28T06:13:07.939Z,77722.19
2023-02-28T06:23:10.786Z,77570.34
2023-02-28T06:33:13.033Z,77523.78
2023-02-28T06:43:18.651Z,77396.22
2023-02-28T06:53:23.213Z,77333.44
2023-02-28T07:03:28.014Z,77292.97
2023-02-28T07:13:34.900Z,77266.66
2023-02-28T07:23:40.221Z,77232.22
2023-02-28T07:33:45.155Z,77280.81
2023-02-28T07:43:48.201Z,77209.94
2023-02-28T07:53:55.133Z,77133.03
2023-02-28T08:04:02.153Z,77250.44
2023-02-28T08:14:08.858Z,77230.19
2023-02-28T08:24:15.313Z,77224.13
2023-02-28T08:34:17.824Z,77151.25
2023-02-28T08:44:20.012Z,77175.53
2023-02-28T08:54:31.874Z,77143.16
2023-02-28T09:04:35.081Z,77345.59
2023-02-28T09:14:45.603Z,77369.91
2023-02-28T09:24:48.127Z,77313.22
2023-02-28T09:34:51.449Z,77272.72
2023-02-28T09:44:55.991Z,77297.00
2023-02-28T09:55:23.529Z,77386.09
2023-02-28T10:05:36.264Z,77365.84
2023-02-28T10:15:40.787Z,77394.19
2023-02-28T10:25:49.354Z,77345.59
2023-02-28T10:35:54.542Z,77315.22
2023-02-28T10:46:04.022Z,77341.56
2023-02-28T10:56:33.814Z,77333.44
2023-02-28T11:06:36.314Z,77272.72
2023-02-28T11:16:41.162Z,77234.25
2023-02-28T11:26:50.038Z,77244.38
2023-02-28T11:36:57.822Z,77207.94
2023-02-28T11:47:11.424Z,77191.72
2023-02-28T11:57:46.973Z,77207.94
2023-02-28T12:08:01.084Z,77195.78
2023-02-28T12:18:08.586Z,77175.53
2023-02-28T12:28:15.912Z,77179.59
2023-02-28T12:38:24.006Z,77139.09
2023-02-28T12:48:47.476Z,77135.03
2023-02-28T12:59:02.064Z,77128.97
2023-02-28T13:09:16.752Z,77112.78
2023-02-28T13:19:21.680Z,77118.84
2023-02-28T13:29:34.740Z,77106.69
2023-02-28T13:39:37.220Z,77100.63
2023-02-28T13:49:42.232Z,77106.69
2023-02-28T14:00:01.696Z,77116.81
2023-02-28T14:10:22.834Z,77102.66
2023-02-28T14:20:32.623Z,77072.28
2023-02-28T14:31:02.937Z,77080.38
2023-02-28T14:41:08.136Z,77050.03
2023-02-28T14:51:10.378Z,77062.16
2023-02-28T15:01:14.631Z,77084.44
2023-02-28T15:11:24.097Z,77086.47
2023-02-28T15:21:26.963Z,77114.81
2023-02-28T15:31:56.111Z,77124.94
2023-02-28T15:42:15.726Z,77143.16
2023-02-28T15:52:27.980Z,77175.53
2023-02-28T16:02:35.685Z,77183.63
2023-02-28T16:12:40.828Z,77224.13
2023-02-28T16:22:43.974Z,77232.22
2023-02-28T16:32:46.842Z,77252.47
2023-02-28T16:42:55.054Z,77272.72
2023-02-28T16:53:02.340Z,77288.91
2023-02-28T17:03:07.621Z,77311.19
2023-02-28T17:13:15.160Z,77319.28
2023-02-28T17:23:22.288Z,77343.56
2023-02-28T17:33:26.963Z,77351.69
2023-02-28T17:43:30.391Z,77357.75
2023-02-28T17:53:35.091Z,77365.84
2023-02-28T18:03:37.313Z,77375.97
2023-02-28T18:13:40.766Z,77378.00
2023-02-28T18:23:48.515Z,77365.84
2023-02-28T18:33:52.290Z,77365.84
2023-02-28T18:43:55.269Z,77353.69
2023-02-28T18:54:02.251Z,77353.69
2023-02-28T19:04:07.114Z,77359.78
2023-02-28T19:14:12.268Z,77382.03
2023-02-28T19:24:18.481Z,77394.19
2023-02-28T19:34:22.605Z,77410.38
2023-02-28T19:44:32.857Z,77438.75
2023-02-28T19:54:36.958Z,77452.91
2023-02-28T20:04:42.136Z,77456.97
2023-02-28T20:14:44.832Z,77456.97
2023-02-28T20:24:49.244Z,77450.88
2023-02-28T20:34:53.735Z,77434.69
2023-02-28T20:44:55.957Z,77410.38
2023-02-28T20:54:58.142Z,77430.63
2023-02-28T21:05:04.160Z,77444.81
2023-02-28T21:15:08.061Z,77450.88
2023-02-28T21:25:12.465Z,77467.09
2023-02-28T21:35:18.970Z,77467.09
2023-02-28T21:45:22.743Z,77475.19
2023-02-28T21:55:26.656Z,77491.38
2023-02-28T22:05:30.449Z,77503.53
2023-02-28T22:15:37.501Z,77491.38
2023-02-28T22:25:45.786Z,77501.50
2023-02-28T22:35:47.960Z,77499.47
2023-02-28T22:45:54.403Z,77501.50
2023-02-28T22:55:59.500Z,77503.53
2023-02-28T23:06:02.876Z,77509.59
2023-02-28T23:16:09.486Z,77527.81
2023-02-28T23:26:16.990Z,77519.72
2023-02-28T23:36:23.152Z,77523.78
2023-02-28T23:46:27.625Z,77452.91
2023-02-28T23:56:34.471Z,77485.31
